Time;durP1;ratioP1;P1;durP2;ratioP2;P2;SDS_P1;SDS_P2;PMS_P1;PMS_P2;Temp;Humidity;BMP_temperature;BMP_pressure;BME280_temperature;BME280_humidity;BME280_pressure;Samples;Min_cycle;Max_cycle;Signal;HPM_P1;HPM_P2
2022/10/23 00:04:40;;;;;;;58.67;26.67;;;;;;;13.73;100.00;100619.22;3437059;84;32145;-89
2022/10/23 00:09:40;;;;;;;53.05;27.05;;;;;;;13.77;100.00;100611.11;3415906;84;99289;-89
2022/10/23 00:14:41;;;;;;;61.23;27.23;;;;;;;13.81;100.00;100609.72;3412534;85;26918;-89
2022/10/23 00:19:42;;;;;;;66.60;32.23;;;;;;;13.84;100.00;100612.48;3423637;85;99451;-89
2022/10/23 00:24:43;;;;;;;58.37;28.60;;;;;;;13.88;100.00;100607.76;3403447;85;26090;-88
2022/10/23 00:29:44;;;;;;;62.73;31.63;;;;;;;13.93;100.00;100613.48;3412598;84;99211;-89
2022/10/23 00:34:45;;;;;;;55.20;28.03;;;;;;;13.95;100.00;100605.59;3414480;85;26188;-89
2022/10/23 00:39:46;;;;;;;48.33;27.03;;;;;;;13.97;100.00;100592.95;3402568;85;99298;-89
2022/10/23 00:44:55;;;;;;;51.13;29.77;;;;;;;14.00;100.00;100587.22;3413183;85;34894;-90
2022/10/23 00:49:57;;;;;;;55.58;30.45;;;;;;;14.01;100.00;100585.41;3402593;84;99245;-89
2022/10/23 00:54:58;;;;;;;55.98;29.42;;;;;;;14.03;100.00;100587.21;3427513;85;31947;-89
2022/10/23 00:59:59;;;;;;;49.10;29.00;;;;;;;14.03;100.00;100587.21;3378852;85;99312;-89
2022/10/23 01:05:00;;;;;;;49.70;29.10;;;;;;;14.05;100.00;100589.55;3426276;85;28145;-90
2022/10/23 01:10:12;;;;;;;50.23;29.73;;;;;;;14.05;100.00;100607.55;3412542;85;99226;-90
2022/10/23 01:15:34;;;;;;;55.52;32.03;;;;;;;14.02;100.00;100606.97;3422923;85;31388;-90
2022/10/23 01:20:53;;;;;;;65.37;31.17;;;;;;;14.00;100.00;100598.28;3407636;85;99158;-90
2022/10/23 01:26:27;;;;;;;61.92;31.68;;;;;;;13.95;100.00;100595.30;3411489;85;31702;-91
2022/10/23 01:31:37;;;;;;;56.42;31.42;;;;;;;13.93;100.00;100601.03;3421606;85;31671;-92
2022/10/23 01:36:41;;;;;;;59.03;30.32;;;;;;;13.84;100.00;100602.03;3417043;85;99431;-90
2022/10/23 01:41:46;;;;;;;50.35;29.95;;;;;;;13.77;100.00;100601.43;3406275;85;31675;-90
2022/10/23 01:46:49;;;;;;;47.33;28.47;;;;;;;13.75;100.00;100591.94;3428290;84;99274;-91
2022/10/23 01:51:55;;;;;;;47.38;26.87;;;;;;;13.72;100.00;100593.52;3419412;85;31674;-90
2022/10/23 01:56:58;;;;;;;42.17;25.17;;;;;;;13.70;100.00;100605.58;3408076;84;99427;-91
2022/10/23 02:02:00;;;;;;;48.00;26.23;;;;;;;13.68;100.00;100607.16;3414682;85;32441;-91
2022/10/23 02:07:01;;;;;;;39.00;24.55;;;;;;;13.66;100.00;100610.30;3354411;87;99339;-91
2022/10/23 02:12:11;;;;;;;41.70;24.73;;;;;;;13.64;100.00;100606.35;3419449;85;27825;-91
2022/10/23 02:17:32;;;;;;;45.80;25.80;;;;;;;13.61;100.00;100609.30;3417722;85;99427;-91
2022/10/23 02:22:40;;;;;;;43.78;25.00;;;;;;;13.60;100.00;100612.45;3434456;84;31714;-91
2022/10/23 02:27:50;;;;;;;46.40;26.62;;;;;;;13.57;100.00;100622.33;3413506;85;99362;-91
2022/10/23 02:32:53;;;;;;;41.48;25.68;;;;;;;13.53;100.00;100618.75;3370874;86;31706;-91
2022/10/23 02:37:57;;;;;;;40.03;26.15;;;;;;;13.48;100.00;100632.19;3355464;84;99392;-90
2022/10/23 02:43:09;;;;;;;43.42;26.10;;;;;;;13.47;100.00;100631.39;3384061;86;32354;-92
2022/10/23 02:48:28;;;;;;;41.60;26.65;;;;;;;13.47;100.00;100629.23;3379388;85;99482;-90
2022/10/23 02:53:57;;;;;;;39.00;24.37;;;;;;;13.43;100.00;100634.75;3380413;86;31687;-90
2022/10/23 02:59:23;;;;;;;47.05;26.77;;;;;;;13.29;100.00;100612.59;3297018;88;99528;-91
2022/10/23 03:04:27;;;;;;;40.00;23.70;;;;;;;13.40;100.00;100633.37;3351150;87;26251;-91
2022/10/23 03:09:28;;;;;;;42.60;26.40;;;;;;;13.36;100.00;100629.80;3408891;85;99041;-90
2022/10/23 03:14:29;;;;;;;44.55;26.90;;;;;;;13.34;100.00;100635.70;3385437;86;32352;-91
2022/10/23 03:19:30;;;;;;;41.57;26.37;;;;;;;13.29;100.00;100636.08;3365219;87;99160;-89
2022/10/23 03:24:30;;;;;;;38.90;24.37;;;;;;;13.26;100.00;100634.11;3424372;85;26401;-90
2022/10/23 03:29:31;;;;;;;43.83;25.50;;;;;;;13.27;100.00;100625.22;3410231;85;99215;-89
2022/10/23 03:34:33;;;;;;;39.93;25.03;;;;;;;13.26;100.00;100637.45;3419818;85;30127;-90
2022/10/23 03:39:34;;;;;;;39.83;24.27;;;;;;;13.25;100.00;100638.03;3396641;85;99410;-89
2022/10/23 03:44:34;;;;;;;40.80;24.17;;;;;;;13.13;100.00;100623.80;3366578;87;35205;-89
2022/10/23 03:49:35;;;;;;;43.43;24.87;;;;;;;13.14;100.00;100648.26;3368257;85;99278;-92
2022/10/23 03:54:36;;;;;;;43.13;26.57;;;;;;;13.08;100.00;100651.20;3362390;87;34855;-90
2022/10/23 03:59:37;;;;;;;56.80;28.03;;;;;;;13.02;100.00;100661.03;3415695;85;99002;-88
2022/10/23 04:04:38;;;;;;;47.23;25.83;;;;;;;13.00;100.00;100652.94;3366434;87;29744;-90
2022/10/23 04:09:39;;;;;;;48.33;26.40;;;;;;;12.96;100.00;100663.16;3415740;84;99171;-90
2022/10/23 04:14:39;;;;;;;47.27;26.63;;;;;;;12.94;100.00;100658.02;3415647;86;27259;-91
2022/10/23 04:19:40;;;;;;;43.37;25.67;;;;;;;12.95;100.00;100655.45;3424298;85;99052;-90
2022/10/23 04:24:45;;;;;;;43.77;25.73;;;;;;;12.91;100.00;100653.86;3406917;85;32497;-89
2022/10/23 04:29:43;;;;;;;42.23;25.40;;;;;;;12.91;100.00;100658.78;3408205;84;99314;-91
2022/10/23 04:34:44;;;;;;;40.07;24.10;;;;;;;12.89;100.00;100654.24;3415755;86;25940;-90
2022/10/23 04:39:45;;;;;;;37.60;23.00;;;;;;;12.88;100.00;100655.43;3411322;85;99332;-92
2022/10/23 04:44:46;;;;;;;41.63;25.63;;;;;;;12.88;100.00;100643.58;3372384;86;32787;-92
2022/10/23 04:49:46;;;;;;;43.73;27.60;;;;;;;12.89;100.00;100653.44;3364606;85;98966;-90
2022/10/23 04:54:47;;;;;;;47.43;27.20;;;;;;;12.90;100.00;100667.45;3364066;87;29187;-90
2022/10/23 04:59:48;;;;;;;44.70;26.10;;;;;;;12.87;100.00;100666.25;3335772;87;99381;-91
2022/10/23 05:04:49;;;;;;;43.20;25.43;;;;;;;12.85;100.00;100667.81;3346244;85;26332;-91
2022/10/23 05:09:50;;;;;;;38.13;24.30;;;;;;;12.87;100.00;100680.66;3347212;87;99272;-90
2022/10/23 05:14:51;;;;;;;43.20;25.47;;;;;;;12.86;100.00;100688.76;3296658;88;26590;-89
2022/10/23 05:19:58;;;;;;;41.13;25.00;;;;;;;12.87;100.00;100679.28;3311178;87;98961;-90
2022/10/23 05:25:00;;;;;;;44.60;25.97;;;;;;;12.86;100.00;100684.01;3276504;88;27767;-90
2022/10/23 05:30:02;;;;;;;41.10;24.85;;;;;;;12.84;100.00;100687.75;3286095;88;99341;-91
2022/10/23 05:35:10;;;;;;;42.03;24.93;;;;;;;12.83;100.00;100677.89;3304264;87;31294;-91
2022/10/23 05:40:12;;;;;;;42.93;26.10;;;;;;;12.83;100.00;100677.89;3394527;84;98882;-89
2022/10/23 05:45:13;;;;;;;47.30;26.85;;;;;;;12.65;100.00;100647.20;3397821;85;33872;-90
2022/10/23 05:50:14;;;;;;;42.93;28.07;;;;;;;12.83;100.00;100688.94;3407574;84;99276;-89
2022/10/23 05:55:16;;;;;;;47.87;27.77;;;;;;;12.83;100.00;100689.52;3355367;86;27787;-90
2022/10/23 06:00:17;;;;;;;44.60;26.80;;;;;;;12.81;100.00;100699.56;3397302;84;99090;-90
2022/10/23 06:05:17;;;;;;;45.53;26.97;;;;;;;12.81;100.00;100697.41;3409169;84;26349;-91
2022/10/23 06:10:18;;;;;;;45.43;27.70;;;;;;;12.81;100.00;100693.27;3341101;87;99060;-91
2022/10/23 06:15:20;;;;;;;41.13;25.00;;;;;;;12.83;100.00;100689.52;3374328;85;26163;-91
2022/10/23 06:20:21;;;;;;;48.73;27.70;;;;;;;12.84;100.00;100689.14;3411253;85;98965;-91
2022/10/23 06:25:21;;;;;;;42.60;26.37;;;;;;;12.85;100.00;100689.33;3406588;85;26471;-91
2022/10/23 06:30:23;;;;;;;41.73;26.73;;;;;;;12.85;100.00;100687.95;3400735;85;99259;-91
2022/10/23 06:35:24;;;;;;;47.63;27.90;;;;;;;12.89;100.00;100691.53;3397146;85;26271;-91
2022/10/23 06:40:25;;;;;;;46.73;25.93;;;;;;;12.92;100.00;100687.20;3400871;85;99438;-90
2022/10/23 06:45:25;;;;;;;48.37;28.80;;;;;;;12.96;100.00;100696.32;3408489;85;25946;-92
2022/10/23 06:50:29;;;;;;;43.98;25.45;;;;;;;13.00;100.00;100693.80;3392971;85;99273;-92
2022/10/23 06:55:31;;;;;;;45.17;25.87;;;;;;;13.05;100.00;100687.11;3403114;85;33400;-90
2022/10/23 07:00:32;;;;;;;45.17;26.67;;;;;;;13.12;100.00;100693.46;3343397;86;99232;-93
2022/10/23 07:05:46;;;;;;;47.13;28.07;;;;;;;13.06;100.00;100683.16;3407775;85;33952;-96
2022/10/23 07:10:49;;;;;;;49.77;25.87;;;;;;;13.18;100.00;100700.20;3389749;84;99208;-94
2022/10/23 07:15:50;;;;;;;47.53;27.17;;;;;;;13.26;100.00;100699.64;3402111;85;26123;-92
2022/10/23 07:20:59;;;;;;;42.23;25.20;;;;;;;13.30;100.00;100701.23;3411421;84;99486;-92
2022/10/23 07:26:15;;;;;;;43.17;26.93;;;;;;;13.32;100.00;100706.38;3351513;86;26035;-93
2022/10/23 07:31:11;;;;;;;43.00;24.40;;;;;;;13.24;100.00;100686.20;3362448;86;26062;-94
2022/10/23 07:36:21;;;;;;;42.10;24.93;;;;;;;13.24;100.00;100686.20;3347632;87;99662;-93
2022/10/23 07:41:22;;;;;;;46.23;23.00;;;;;;;13.43;100.00;100707.22;3397001;85;26372;-93
2022/10/23 07:46:23;;;;;;;45.10;23.07;;;;;;;13.43;100.00;100710.79;3397275;84;99370;-92
2022/10/23 07:51:24;;;;;;;43.37;26.67;;;;;;;13.46;100.00;100714.75;3404589;85;33625;-92
2022/10/23 07:56:30;;;;;;;42.90;23.47;;;;;;;13.49;100.00;100713.95;3392846;85;99427;-92
2022/10/23 08:01:34;;;;;;;45.67;24.05;;;;;;;13.50;100.00;100717.72;3412100;85;26092;-92
2022/10/23 08:06:35;;;;;;;45.10;25.12;;;;;;;13.60;100.00;100727.23;3379335;85;99416;-91
2022/10/23 08:11:36;;;;;;;43.33;25.23;;;;;;;13.64;100.00;100728.84;3415274;85;33271;-92
2022/10/23 08:16:38;;;;;;;42.63;23.63;;;;;;;13.68;100.00;100734.38;3404487;84;99554;-89
2022/10/23 08:21:39;;;;;;;41.63;22.87;;;;;;;13.68;100.00;100742.68;3406628;85;25882;-86
2022/10/23 08:26:40;;;;;;;41.30;24.20;;;;;;;13.73;100.00;100745.84;3392130;84;99764;-91
2022/10/23 08:31:42;;;;;;;42.67;25.27;;;;;;;13.78;100.00;100752.38;3415222;85;33759;-91
2022/10/23 08:36:43;;;;;;;46.50;26.50;;;;;;;13.82;100.00;100759.31;3337870;87;99445;-92
2022/10/23 08:41:50;;;;;;;39.50;23.00;;;;;;;13.85;100.00;100760.70;3405954;85;33961;-90
2022/10/23 08:46:59;;;;;;;54.88;26.33;;;;;;;13.92;100.00;100754.41;3383452;84;99464;-96
2022/10/23 08:52:08;;;;;;;49.40;27.53;;;;;;;13.99;100.00;100760.75;3337092;87;26047;-93
2022/10/23 08:57:16;;;;;;;54.85;28.00;;;;;;;13.80;100.00;100744.48;3403596;84;99592;-89
2022/10/23 09:02:31;;;;;;;44.27;23.87;;;;;;;13.82;100.00;100762.08;3376614;86;26065;-93
2022/10/23 09:07:50;;;;;;;47.35;25.30;;;;;;;13.84;100.00;100763.27;3348864;86;99333;-93
2022/10/23 09:12:51;;;;;;;44.75;25.57;;;;;;;13.89;100.00;100759.35;3334843;87;26336;-91
2022/10/23 09:18:00;;;;;;;45.57;22.97;;;;;;;13.84;100.00;100750.82;3332287;85;99609;-92
2022/10/23 09:23:09;;;;;;;53.67;27.47;;;;;;;13.93;100.00;100755.98;3320313;87;26428;-91
2022/10/23 09:28:33;;;;;;;47.55;28.30;;;;;;;13.95;100.00;100768.85;3337635;86;99104;-89
2022/10/23 09:33:36;;;;;;;45.33;24.20;;;;;;;13.97;100.00;100765.09;3400843;85;26009;-88
2022/10/23 09:38:48;;;;;;;47.88;25.70;;;;;;;14.01;100.00;100768.67;3382938;84;99500;-90
2022/10/23 09:44:26;;;;;;;51.73;24.63;;;;;;;14.08;100.00;100773.63;3378406;85;26723;-92
2022/10/23 09:49:32;;;;;;;47.70;26.00;;;;;;;14.15;100.00;100773.64;3395991;84;99418;-87
2022/10/23 09:54:53;;;;;;;47.88;27.22;;;;;;;14.26;100.00;100782.79;3400831;85;26429;-90
2022/10/23 09:59:59;;;;;;;56.10;32.83;;;;;;;14.30;100.00;100790.52;3394904;85;99320;-88
2022/10/23 10:05:26;;;;;;;52.57;28.57;;;;;;;14.35;100.00;100790.13;3401294;85;26501;-90
2022/10/23 10:10:37;;;;;;;50.83;27.70;;;;;;;14.39;100.00;100779.05;3358879;85;99292;-91
2022/10/23 10:15:48;;;;;;;48.93;28.43;;;;;;;14.43;100.00;100770.94;3313177;87;33768;-93
2022/10/23 10:21:09;;;;;;;42.93;25.23;;;;;;;14.51;100.00;100781.44;3402031;84;99458;-91
2022/10/23 10:26:54;;;;;;;38.10;24.10;;;;;;;14.47;100.00;100777.28;3396902;84;98792;-93
2022/10/23 10:32:19;;;;;;;37.97;22.53;;;;;;;14.45;100.00;100776.86;3394344;86;26287;-92
2022/10/23 10:37:38;;;;;;;35.90;23.65;;;;;;;14.43;100.00;100779.83;3367508;85;99363;-91
2022/10/23 10:43:14;;;;;;;38.88;23.87;;;;;;;14.49;100.00;100772.13;3398198;85;26454;-94
2022/10/23 10:48:59;;;;;;;40.23;25.85;;;;;;;14.59;100.00;100771.93;3333471;87;100232;-91
2022/10/23 11:00:17;;;;;;;37.07;21.47;;;;;;;14.70;100.00;100762.44;3364260;86;99097;-87
2022/10/23 11:05:33;;;;;;;29.12;20.02;;;;;;;14.78;100.00;100758.47;3389369;86;26653;-88
2022/10/23 11:10:37;;;;;;;37.50;24.90;;;;;;;14.85;100.00;100759.06;3340312;85;99365;-88
2022/10/23 11:15:42;;;;;;;37.27;23.17;;;;;;;14.93;100.00;100763.42;3337454;86;25932;-90
2022/10/23 11:20:57;;;;;;;40.25;25.80;;;;;;;15.01;100.00;100751.92;3404737;85;99021;-89
2022/10/23 11:26:36;;;;;;;40.00;26.57;;;;;;;15.12;100.00;100749.13;3411082;84;26610;-88
2022/10/23 11:31:45;;;;;;;42.87;27.40;;;;;;;15.21;100.00;100750.89;3405078;84;26716;-88
2022/10/23 11:36:56;;;;;;;51.88;30.57;;;;;;;15.35;100.00;100728.67;3450426;83;99538;-89
2022/10/23 11:42:01;;;;;;;53.37;32.67;;;;;;;15.47;100.00;100726.26;3472914;83;26658;-87
2022/10/23 11:47:36;;;;;;;47.53;32.13;;;;;;;15.57;100.00;100714.33;3457487;83;99128;-86
2022/10/23 11:52:41;;;;;;;49.17;34.90;;;;;;;15.65;100.00;100722.03;3466134;83;25881;-85
2022/10/23 11:58:10;;;;;;;53.10;31.82;;;;;;;15.70;100.00;100711.90;3439492;83;99633;-86
2022/10/23 12:03:21;;;;;;;48.87;30.07;;;;;;;15.71;100.00;100700.98;3458898;84;26437;-86
2022/10/23 12:08:27;;;;;;;43.57;26.43;;;;;;;15.74;100.00;100693.22;3436202;84;99573;-84
2022/10/23 12:13:40;;;;;;;36.48;25.50;;;;;;;15.80;100.00;100684.69;3453056;84;26157;-87
2022/10/23 12:18:52;;;;;;;34.53;24.65;;;;;;;15.83;100.00;100675.53;3448307;84;99458;-86
2022/10/23 12:24:21;;;;;;;47.53;30.10;;;;;;;15.91;100.00;100670.91;3456330;84;25957;-86
2022/10/23 12:30:00;;;;;;;43.98;28.45;;;;;;;16.00;100.00;100678.20;3450240;84;99387;-86
2022/10/23 12:35:30;;;;;;;39.90;28.47;;;;;;;16.07;100.00;100672.59;3445560;84;25938;-86
2022/10/23 12:40:31;;;;;;;40.73;26.47;;;;;;;16.16;100.00;100677.09;3431370;84;99279;-86
2022/10/23 12:45:37;;;;;;;37.77;26.50;;;;;;;16.24;100.00;100671.66;3461405;84;26301;-86
2022/10/23 12:50:38;;;;;;;38.08;25.23;;;;;;;16.27;100.00;100658.95;3459963;84;99047;-86
2022/10/23 12:56:01;;;;;;;34.63;24.63;;;;;;;16.29;100.00;100653.79;3452133;84;25908;-85
2022/10/23 13:01:05;;;;;;;32.75;23.70;;;;;;;16.25;100.00;100656.57;3457824;84;98851;-85
2022/10/23 13:06:08;;;;;;;40.12;25.75;;;;;;;16.24;100.00;100657.77;3461689;84;26759;-86
2022/10/23 13:11:13;;;;;;;32.50;24.00;;;;;;;16.24;100.00;100655.61;3441584;84;27052;-85
2022/10/23 13:16:20;;;;;;;29.42;21.45;;;;;;;16.28;100.00;100642.47;3447290;84;99648;-84
2022/10/23 13:21:27;;;;;;;24.95;17.65;;;;;;;16.37;100.00;100646.95;3457580;84;25979;-86
2022/10/23 13:26:33;;;;;;;20.00;14.87;;;;;;;16.40;100.00;100627.51;3446950;84;99151;-85
2022/10/23 13:31:35;;;;;;;18.75;14.05;;;;;;;16.42;100.00;100615.41;3448856;84;26502;-85
2022/10/23 13:36:38;;;;;;;23.52;15.50;;;;;;;16.45;100.00;100609.63;3455741;84;99124;-85
2022/10/23 13:41:46;;;;;;;21.20;14.07;;;;;;;16.47;100.00;100617.70;3469538;84;26517;-86
2022/10/23 13:46:48;;;;;;;23.30;16.05;;;;;;;16.45;100.00;100625.67;3465965;84;99095;-86
2022/10/23 13:51:52;;;;;;;22.52;14.05;;;;;;;16.44;100.00;100624.10;3460759;84;25866;-85
2022/10/23 13:56:55;;;;;;;22.10;14.63;;;;;;;16.44;100.00;100618.55;3453632;84;99394;-85
2022/10/23 14:01:56;;;;;;;20.72;14.18;;;;;;;16.44;100.00;100626.08;3447994;84;26562;-85
2022/10/23 14:06:57;;;;;;;19.57;12.53;;;;;;;16.43;100.00;100621.14;3438928;84;99463;-85
2022/10/23 14:11:58;;;;;;;18.80;12.70;;;;;;;16.38;100.00;100612.42;3447812;84;25922;-85
2022/10/23 14:16:59;;;;;;;17.43;11.73;;;;;;;16.31;100.00;100608.33;3445820;84;99533;-86
2022/10/23 14:22:00;;;;;;;18.10;11.53;;;;;;;16.29;100.00;100612.12;3451739;84;33813;-86
2022/10/23 14:27:01;;;;;;;18.20;13.13;;;;;;;16.23;100.00;100597.08;3372893;86;99158;-86
2022/10/23 14:32:02;;;;;;;18.93;10.33;;;;;;;16.23;100.00;100597.08;3378902;86;33876;-86
2022/10/23 14:37:04;;;;;;;26.87;9.73;;;;;;;16.19;100.00;100598.50;3369490;85;99139;-86
2022/10/23 14:42:05;;;;;;;17.30;11.83;;;;;;;16.15;100.00;100594.19;3344707;86;33808;-85
2022/10/23 14:47:06;;;;;;;14.23;9.33;;;;;;;16.09;100.00;100595.22;3339936;86;99554;-85
2022/10/23 14:52:07;;;;;;;15.20;10.47;;;;;;;16.03;100.00;100590.53;3354542;86;33840;-85
2022/10/23 14:57:08;;;;;;;15.28;10.18;;;;;;;15.97;100.00;100577.67;3369969;84;99238;-86
2022/10/23 15:02:10;;;;;;;15.57;10.83;;;;;;;15.89;100.00;100575.37;3393754;84;33224;-85
2022/10/23 15:07:11;;;;;;;16.73;9.37;;;;;;;15.74;100.00;100564.98;3397001;84;99194;-84
2022/10/23 15:12:17;;;;;;;16.23;11.40;;;;;;;15.60;100.00;100562.91;3428721;84;33248;-86
2022/10/23 15:17:17;;;;;;;24.87;16.15;;;;;;;15.55;100.00;100568.31;3439114;84;99240;-86
2022/10/23 15:22:21;;;;;;;21.70;15.63;;;;;;;15.46;100.00;100566.58;3446931;84;33270;-86
2022/10/23 15:27:22;;;;;;;24.90;15.73;;;;;;;15.40;100.00;100566.02;3429453;84;99374;-86
2022/10/23 15:32:23;;;;;;;21.60;13.20;;;;;;;15.30;100.00;100559.90;3455478;84;26078;-85
2022/10/23 15:37:25;;;;;;;26.23;19.20;;;;;;;15.20;100.00;100571.87;3455906;83;99559;-86
2022/10/23 15:42:26;;;;;;;25.03;19.83;;;;;;;15.08;100.00;100577.26;3453249;83;33468;-84
2022/10/23 15:47:26;;;;;;;26.47;21.37;;;;;;;14.97;100.00;100577.91;3436738;84;99471;-86
2022/10/23 15:52:34;;;;;;;22.93;19.07;;;;;;;14.86;100.00;100571.63;3448123;83;33209;-84
2022/10/23 15:57:37;;;;;;;24.77;19.60;;;;;;;14.76;100.00;100559.98;3443744;83;99114;-86
2022/10/23 16:02:38;;;;;;;28.33;21.03;;;;;;;14.65;100.00;100554.27;3449116;83;25954;-85
2022/10/23 16:07:39;;;;;;;23.23;17.03;;;;;;;14.54;100.00;100552.13;3433518;84;99444;-86
2022/10/23 16:12:40;;;;;;;22.80;16.63;;;;;;;14.44;100.00;100550.20;3453469;84;31296;-86
2022/10/23 16:17:41;;;;;;;21.12;15.83;;;;;;;14.35;100.00;100552.59;3437243;84;99535;-85
2022/10/23 16:22:43;;;;;;;25.87;17.50;;;;;;;14.27;100.00;100553.78;3448236;84;34324;-86
2022/10/23 16:27:45;;;;;;;30.40;22.37;;;;;;;14.16;100.00;100546.05;3431483;84;99463;-86
2022/10/23 16:32:45;;;;;;;33.17;21.17;;;;;;;14.08;100.00;100552.22;3449876;84;34377;-85
2022/10/23 16:37:47;;;;;;;26.70;18.70;;;;;;;14.01;100.00;100551.44;3444362;84;99119;-85
2022/10/23 16:42:47;;;;;;;31.07;21.30;;;;;;;13.93;100.00;100560.91;3439076;84;33757;-85
2022/10/23 16:47:48;;;;;;;31.10;23.33;;;;;;;13.81;100.00;100549.66;3438881;83;99078;-85
2022/10/23 16:52:49;;;;;;;33.23;23.53;;;;;;;13.76;100.00;100554.20;3441660;84;33751;-85
2022/10/23 16:57:50;;;;;;;33.60;24.50;;;;;;;13.68;100.00;100562.90;3437473;84;99042;-86
2022/10/23 17:02:51;;;;;;;38.03;25.60;;;;;;;13.61;100.00;100552.61;3441698;83;34346;-85
2022/10/23 17:07:52;;;;;;;36.40;27.50;;;;;;;13.55;100.00;100561.11;3432357;84;99197;-85
2022/10/23 17:12:53;;;;;;;39.67;28.27;;;;;;;13.50;100.00;100549.63;3449103;83;31997;-85
2022/10/23 17:17:54;;;;;;;40.80;28.90;;;;;;;13.27;100.00;100512.69;3445805;84;99282;-85
2022/10/23 17:22:55;;;;;;;42.53;30.00;;;;;;;13.27;100.00;100512.69;3449395;84;31951;-86
2022/10/23 17:27:58;;;;;;;36.50;27.33;;;;;;;13.35;100.00;100545.28;3437125;84;99085;-86
2022/10/23 17:32:59;;;;;;;39.45;28.95;;;;;;;13.28;100.00;100545.25;3443007;84;31439;-85
2022/10/23 17:38:00;;;;;;;38.23;28.00;;;;;;;13.28;100.00;100545.25;3451704;84;99167;-85
2022/10/23 17:43:02;;;;;;;39.87;27.70;;;;;;;13.24;100.00;100550.77;3441194;83;31709;-85
2022/10/23 17:48:03;;;;;;;40.27;28.53;;;;;;;13.21;100.00;100543.86;3411627;84;99124;-85
2022/10/23 17:53:04;;;;;;;32.87;25.50;;;;;;;13.16;100.00;100547.81;3423663;84;31881;-85
2022/10/23 17:58:06;;;;;;;36.77;28.23;;;;;;;13.12;100.00;100543.44;3412334;84;99544;-84
2022/10/23 18:03:12;;;;;;;42.27;29.37;;;;;;;13.09;100.00;100545.00;3428235;84;26565;-85
2022/10/23 18:08:13;;;;;;;38.23;26.90;;;;;;;13.05;100.00;100531.80;3410297;83;99577;-84
2022/10/23 18:13:13;;;;;;;34.97;25.00;;;;;;;13.03;100.00;100531.38;3417977;84;32248;-84
2022/10/23 18:18:14;;;;;;;35.80;23.23;;;;;;;13.00;100.00;100518.36;3416605;84;99116;-84
2022/10/23 18:23:15;;;;;;;33.47;23.23;;;;;;;12.99;100.00;100504.35;3423579;84;32270;-85
2022/10/23 18:28:16;;;;;;;33.57;23.93;;;;;;;12.98;100.00;100496.45;3419795;85;99193;-85
2022/10/23 18:33:18;;;;;;;35.43;23.93;;;;;;;12.96;100.00;100488.55;3465914;83;32213;-84
2022/10/23 18:38:18;;;;;;;37.67;25.17;;;;;;;12.96;100.00;100493.27;3462005;83;99324;-85
2022/10/23 18:43:19;;;;;;;39.10;25.90;;;;;;;12.94;100.00;100485.36;3471717;83;32131;-84
2022/10/23 18:48:20;;;;;;;36.03;24.97;;;;;;;12.94;100.00;100469.37;3453031;83;99238;-84
2022/10/23 18:53:23;;;;;;;36.98;25.95;;;;;;;12.92;100.00;100470.36;3422560;84;32199;-85
2022/10/23 18:58:24;;;;;;;32.70;23.27;;;;;;;12.90;100.00;100452.79;3412990;85;99370;-84
2022/10/23 19:03:28;;;;;;;39.60;25.57;;;;;;;12.89;100.00;100451.79;3424691;84;25907;-84
2022/10/23 19:08:29;;;;;;;36.23;24.25;;;;;;;12.87;100.00;100443.89;3439107;84;99405;-84
2022/10/23 19:13:35;;;;;;;42.53;29.60;;;;;;;12.87;100.00;100441.73;3456907;84;26410;-85
2022/10/23 19:18:40;;;;;;;51.17;33.20;;;;;;;12.85;100.00;100430.27;3434141;84;99237;-85
2022/10/23 19:23:42;;;;;;;39.63;25.13;;;;;;;12.84;100.00;100430.08;3437589;84;28467;-85
2022/10/23 19:28:46;;;;;;;34.15;22.80;;;;;;;12.83;100.00;100426.55;3433696;84;99363;-84
2022/10/23 19:33:47;;;;;;;33.50;22.87;;;;;;;12.84;100.00;100433.64;3450433;84;31581;-84
2022/10/23 19:38:48;;;;;;;32.90;21.00;;;;;;;12.84;100.00;100433.64;3436522;84;99556;-85
2022/10/23 19:43:48;;;;;;;28.47;20.40;;;;;;;12.85;100.00;100439.94;3445491;84;31527;-85
2022/10/23 19:48:49;;;;;;;32.13;21.17;;;;;;;12.86;100.00;100429.11;3444931;84;99734;-84
2022/10/23 19:53:53;;;;;;;29.77;19.33;;;;;;;12.87;100.00;100427.92;3446315;84;36063;-85
2022/10/23 19:58:54;;;;;;;33.40;21.07;;;;;;;12.89;100.00;100433.84;3440692;84;99482;-85
2022/10/23 20:03:56;;;;;;;28.80;20.27;;;;;;;12.89;100.00;100424.17;3449407;84;26335;-85
2022/10/23 20:08:57;;;;;;;30.70;20.53;;;;;;;12.91;100.00;100425.97;3446294;84;99247;-85
2022/10/23 20:13:59;;;;;;;30.57;21.57;;;;;;;12.93;100.00;100423.59;3445037;84;25845;-84
2022/10/23 20:19:07;;;;;;;27.97;19.63;;;;;;;12.92;100.00;100420.63;3451100;83;99531;-85
2022/10/23 20:24:09;;;;;;;30.00;20.88;;;;;;;12.93;100.00;100417.45;3448513;83;32257;-84
2022/10/23 20:29:10;;;;;;;33.58;20.68;;;;;;;12.94;100.00;100416.30;3445933;83;99472;-85
2022/10/23 20:34:11;;;;;;;31.40;21.97;;;;;;;12.95;100.00;100415.69;3448114;84;31697;-84
2022/10/23 20:39:17;;;;;;;31.50;20.57;;;;;;;12.94;100.00;100420.45;3438819;84;99833;-84
2022/10/23 20:44:18;;;;;;;31.15;20.05;;;;;;;12.95;100.00;100414.31;3445028;83;25856;-84
2022/10/23 20:49:20;;;;;;;33.97;20.53;;;;;;;12.94;100.00;100399.72;3435331;83;99216;-85
2022/10/23 20:54:24;;;;;;;33.10;21.23;;;;;;;12.90;100.00;100375.45;3439728;84;31715;-85
2022/10/23 20:59:25;;;;;;;31.30;20.10;;;;;;;12.90;100.00;100375.45;3431796;84;99317;-85
2022/10/23 21:04:27;;;;;;;36.17;20.70;;;;;;;12.90;100.00;100374.64;3447241;84;25399;-84
2022/10/23 21:09:29;;;;;;;30.70;20.32;;;;;;;12.89;100.00;100386.30;3440844;84;99660;-85
2022/10/23 21:14:30;;;;;;;34.38;19.57;;;;;;;12.87;100.00;100368.54;3444879;84;31710;-85
2022/10/23 21:19:31;;;;;;;27.17;19.40;;;;;;;12.90;100.00;100378.78;3450371;84;99504;-84
2022/10/23 21:24:32;;;;;;;27.00;19.53;;;;;;;12.88;100.00;100377.02;3444831;84;25985;-85
2022/10/23 21:29:32;;;;;;;28.23;19.30;;;;;;;12.86;100.00;100371.11;3463107;84;98879;-85
2022/10/23 21:34:33;;;;;;;33.87;21.43;;;;;;;12.84;100.00;100361.83;3445253;84;35129;-86
2022/10/23 21:39:34;;;;;;;33.30;20.27;;;;;;;12.81;100.00;100352.94;3435850;84;99050;-86
2022/10/23 21:44:35;;;;;;;30.67;20.20;;;;;;;12.79;100.00;100358.08;3456093;84;35108;-85
2022/10/23 21:49:36;;;;;;;30.57;18.70;;;;;;;12.76;100.00;100355.31;3442083;84;99263;-85
2022/10/23 21:54:37;;;;;;;33.78;22.40;;;;;;;12.69;100.00;100347.00;3455364;84;33705;-85
2022/10/23 21:59:38;;;;;;;32.57;21.63;;;;;;;12.69;100.00;100347.00;3446424;84;99305;-85
2022/10/23 22:04:39;;;;;;;33.30;21.87;;;;;;;12.66;100.00;100344.46;3446950;84;25855;-85
2022/10/23 22:09:40;;;;;;;34.83;21.73;;;;;;;12.63;100.00;100344.44;3435682;84;99187;-85
2022/10/23 22:14:41;;;;;;;39.47;25.07;;;;;;;12.61;100.00;100342.67;3443274;84;27232;-85
2022/10/23 22:19:42;;;;;;;34.87;24.50;;;;;;;12.57;100.00;100339.91;3444919;84;99319;-85
2022/10/23 22:24:43;;;;;;;39.47;23.77;;;;;;;12.52;100.00;100316.82;3447136;84;25907;-84
2022/10/23 22:29:44;;;;;;;33.90;23.03;;;;;;;12.51;100.00;100315.83;3443609;84;99097;-85
2022/10/23 22:34:44;;;;;;;36.80;24.47;;;;;;;12.47;100.00;100324.11;3464843;84;32476;-85
2022/10/23 22:39:50;;;;;;;33.98;22.80;;;;;;;12.43;100.00;100325.29;3434252;83;99200;-85
2022/10/23 22:44:51;;;;;;;37.10;23.73;;;;;;;12.40;100.00;100331.00;3438229;84;27384;-85
2022/10/23 22:49:54;;;;;;;35.47;24.57;;;;;;;12.37;100.00;100327.63;3435450;84;99490;-85
2022/10/23 22:54:55;;;;;;;35.43;23.00;;;;;;;12.35;100.00;100330.00;3449727;84;32403;-85
2022/10/23 22:59:56;;;;;;;35.43;22.83;;;;;;;12.32;100.00;100308.69;3437003;84;99139;-85